SBJU/JDO METAR and TAF weather

Enter ICAO airport designator
Station Type Date Time Source
SBJU METAR 2020/09/22 22:00 UTC NOAA

SBJU 222200Z 06003KT 9999 SCT020 32/13 Q1016


Station Type Date Time Source
SBJU Decoded METAR 2020/09/22 22:00 UTC NOAA

Station name not available
Sep 22, 2020 - 06:00 PM EDT / 2020.09.22 2200 UTC
Wind: from the ENE (060 degrees) at 3 MPH (3 KT):0
Visibility: greater than 7 mile(s):0
Sky conditions: partly cloudy
Temperature: 89 F (32 C)
Dew Point: 55 F (13 C)
Relative Humidity: 31%
Pressure (altimeter): 30.00 in. Hg (1016 hPa)
ob: SBJU 222200Z 06003KT 9999 SCT020 32/13 Q1016
cycle: 22

Station Type Date Time Source
SBJU TAF 2011/11/01 00:05 UTC NOAA

TAF SBJU 012200Z 0200/0212 00000KT 9999 SCT020 TX28/0200Z TN24/0207Z
BECMG 0210/0212 06005KT
RMK PCE

Example: see airport list